• Join FlightAware (Why Join?)
  • Login
  • US Flag 
06:59PM EDT


 

Airport Tracker/Info


-or-


 

Live Flight TrackerFlight Track Log ✈ EJA829P ✈ 09-Jul-2013 ✈ KMMU - KART

Flight Track Log - Related Links

Times and Time Zones

All times are in EDT time to prevent confusion due to time zone crossing. See the EJA829P flight status page for this flight to view local times or setup timezone preferences in your user account.

Time Position Orientation Groundspeed Altitude Reporting Facility
EDT Latitude Longitude Course Direction KTS MPH feet Rate Location/Type
07:41PM 40.7833 -74.4333 166° South 193 222 1,500  Level New York TRACON
07:42PM 40.7333 -74.4167 166° South 221 254 2,600 1,560 Climbing New York TRACON
07:43PM 40.7500 -74.3500 72° East 250 288 4,500 2,580 Climbing New York TRACON
07:44PM 40.8000 -74.2833 45° Northeast 301 346 7,600 3,120 Climbing New York TRACON
07:45PM 40.8667 -74.3167 339° North 301 346 10,800 3,060 Climbing New York TRACON
07:46PM 40.9500 -74.3500 343° North 294 338 13,700 1,620 Climbing New York TRACON
07:48PM 41.0994 -74.4717 328° Northwest 312 359 16,000 720 Climbing New York Center
07:49PM 41.1806 -74.5422 327° Northwest 321 369 16,000 780 Level New York Center
07:50PM 41.2389 -74.6006 323° Northwest 311 358 17,600 1,320 Climbing New York Center
07:51PM 41.2983 -74.6953 310° West 298 343 18,700 1,080 Climbing New York Center
07:52PM 41.3575 -74.7925 309° West 321 369 19,800 600 Climbing New York Center
07:53PM 41.4228 -74.8961 310° West 344 396 20,000 60 Climbing New York Center
07:54PM 41.4856 -75.0025 308° West 358 412 20,000  Level New York Center
07:55PM 41.5486 -75.1061 309° West 364 419 20,000  Level New York Center
07:56PM 41.6092 -75.2100 308° West 358 412 20,000  Level New York Center
07:57PM 41.6700 -75.3083 310° West 358 412 20,000  Level New York Center
07:58PM 41.7308 -75.4097 309° West 353 406 20,000  Level New York Center
07:59PM 41.7911 -75.5114 309° West 353 406 20,000  Level New York Center
08:00PM 41.8497 -75.6131 308° West 358 412 20,000 -360 Level New York Center
08:03PM 42.0225 -75.7603 328° Northwest 326 375 19,000 -780 Descending Boston Center
08:04PM 42.1200 -75.7739 354° North 333 383 17,500 -1,020 Descending Boston Center
08:05PM 42.2175 -75.7875 354° North 345 397 17,000 -300 Descending Boston Center
08:06PM 42.3047 -75.8064 351° North 350 403 16,900 -60 Descending Boston Center
08:07PM 42.3939 -75.8167 355° North 337 388 16,900  Level Boston Center
08:08PM 42.4769 -75.8297 353° North 315 362 16,900  Level Boston Center
08:09PM 42.5619 -75.8456 352° North 308 354 16,900  Level Boston Center
08:10PM 42.6492 -75.8561 355° North 303 349 16,900  Level Boston Center
08:11PM 42.7383 -75.8722 352° North 316 364 16,900  Level Boston Center
08:12PM 42.8275 -75.8858 354° North 316 364 16,900  Level Boston Center
08:13PM 42.9211 -75.8994 354° North 323 372 16,900  Level Boston Center
08:14PM 43.0128 -75.9017 359° North 329 379 16,900  Level Boston Center
08:14PM 43.0903 -75.8861 North 345 397 16,900 -420 Level Boston Center
08:15PM 43.1442 -75.8978 351° North 339 390 16,400 -1,260 Descending Boston Center
08:16PM 43.1997 -75.9239 341° North 329 379 15,400 -1,620 Descending Boston Center
08:17PM 43.2886 -75.9431 351° North 329 379 13,800 -1,620 Descending Boston Center
08:18PM 43.3819 -75.9600 352° North 318 366 12,200 -1,680 Descending Boston Center
08:19PM 43.4628 -75.9731 353° North 306 352 10,500 -1,800 Descending Boston Center
08:20PM 43.5458 -75.9867 353° North 301 346 8,700 -1,800 Descending Boston Center
08:21PM 43.6286 -76.0058 350° North 301 346 7,000 -1,740 Descending Boston Center
08:22PM 43.7094 -76.0192 353° North 295 339 5,300 -1,680 Descending Boston Center
08:23PM 43.7883 -76.0356 351° North 290 334 3,700 -900 Descending Boston Center
08:24PM 43.8567 -76.0453 354° North 274 315 3,600 -120 Descending Boston Center
08:25PM 43.9214 -76.0406 North 245 282 3,500 -240 Descending Boston Center
08:26PM 43.9836 -76.0500 354° North 240 276 3,200 6,720 Descending Boston Center
08:27PM 44.0525 -76.0542 358° North 240 276 17,000 6,900 Climbing Boston Center
08:28PM 44.1189 -76.0583 357° North 240 276 17,000  Level Boston Center
08:29PM 44.1875 -76.0625 358° North 240 276 17,000  Level Boston Center
08:31PM 44.0340 -76.0297 170° South  Level Estimated
08:38PM 43.9919 -76.0207 170° South  Level Estimated
08:39PM 43.9919 -76.0207 170° South  Level Estimated
08:40PM 43.9919 -76.0207 170° South  Level Estimated
08:41PM 43.9919 -76.0207 170° South  Level Estimated